»·PEaware :: WAT169 KSEA-KSNA

WAT169 :: KSEA-KSNA

FLIGHT INFORMATION

Flight Status: Arrived
Operator: Unknown
More flights by this operator :: More flights under this callsign
Pilot: Marty P. (27464)
Aircraft: BOMBARDIER BD-100 CHALLENGER 300
(CL30)
More flights by this aircraft type
Origin: KSEA Seattle-Tacoma Intl
United States
Destination: KSNA John Wayne-Orange Co
United States
More flights between these airports :: More routes between these airports
Route: +SUMMA2 SUMMA Q9 REBRG OHSEA2
File this flight plan on PilotEdge
Remarks:
Altitude:
(Current/Filed)
39,000ft
Speed:
(Current/Filed)
470kts
Departed: 23-Mar-20 11:44 AM
Arrived: 23-Mar-20 02:05 PM
Distance/Time
Traveled:
851nm/2:21
Distance/Time
To Go:
Arrived

Flight Plot

Page will automatically refresh every two minutes.

Flight plan parsing failed; only flown route is shown


Map Options




Map Legend


Flown Route
Filed Route
Departure Airport
Arrival Airport
Navaid (VOR, NDB)
Fix

Horizontal Profiles

Position Reports

Time Latitude Longitude Heading Altitude Ground
Speed
23-Mar-20 10:56 47.445754 -122.304604 90 440ft 0kts
23-Mar-20 10:57 47.445754 -122.304604 90 440ft 0kts
23-Mar-20 10:58 47.445754 -122.304604 90 440ft 0kts
23-Mar-20 10:59 47.445754 -122.304604 90 440ft 0kts
23-Mar-20 11:00 47.445754 -122.304604 90 440ft 0kts
23-Mar-20 11:02 47.445754 -122.304604 90 440ft 0kts
23-Mar-20 11:03 47.445754 -122.304604 90 440ft 0kts
23-Mar-20 11:04 47.445754 -122.304604 90 440ft 0kts
23-Mar-20 11:05 47.445754 -122.304604 90 440ft 0kts
23-Mar-20 11:06 47.445754 -122.304604 90 440ft 0kts
23-Mar-20 11:07 47.445754 -122.304604 90 440ft 0kts
23-Mar-20 11:08 47.445754 -122.304604 90 440ft 0kts
23-Mar-20 11:09 47.445754 -122.304604 90 440ft 0kts
23-Mar-20 11:10 47.445754 -122.304604 90 440ft 0kts
23-Mar-20 11:11 47.445754 -122.304604 90 440ft 0kts
23-Mar-20 11:12 47.445754 -122.304604 90 440ft 0kts
23-Mar-20 11:13 47.445754 -122.304604 90 440ft 0kts
23-Mar-20 11:14 47.445754 -122.304604 90 440ft 0kts
23-Mar-20 11:15 47.445754 -122.304604 90 440ft 0kts
23-Mar-20 11:16 47.445754 -122.304604 90 440ft 0kts
23-Mar-20 11:17 47.445754 -122.304604 90 440ft 0kts
23-Mar-20 11:18 47.445754 -122.304604 90 440ft 0kts
23-Mar-20 11:19 47.445754 -122.304604 90 440ft 0kts
23-Mar-20 11:20 47.445754 -122.304604 90 440ft 0kts
23-Mar-20 11:21 47.445754 -122.304604 90 440ft 0kts
23-Mar-20 11:21 47.445754 -122.304604 90 440ft 0kts
23-Mar-20 11:22 47.445754 -122.304604 90 440ft 0kts
23-Mar-20 11:24 47.445754 -122.304604 90 440ft 0kts
23-Mar-20 11:24 47.445754 -122.304604 90 440ft 0kts
23-Mar-20 11:25 47.445754 -122.304604 90 440ft 0kts
23-Mar-20 11:27 47.445754 -122.304604 90 440ft 0kts
23-Mar-20 11:27 47.445754 -122.304604 90 440ft 0kts
23-Mar-20 11:28 47.445754 -122.304604 90 440ft 0kts
23-Mar-20 11:29 47.445754 -122.304604 90 440ft 0kts
23-Mar-20 11:30 47.445754 -122.304604 90 440ft 0kts
23-Mar-20 11:31 47.445754 -122.304597 90 440ft 0kts
23-Mar-20 11:32 47.445782 -122.305261 94 440ft 2kts
23-Mar-20 11:33 47.445782 -122.305458 90 440ft 0kts
23-Mar-20 11:34 47.445826 -122.305352 7 440ft 0kts
23-Mar-20 11:35 47.445826 -122.305352 7 440ft 0kts
23-Mar-20 11:36 47.446360 -122.306269 347 440ft 7kts
23-Mar-20 11:37 47.447309 -122.306276 1 440ft 4kts
23-Mar-20 11:38 47.449077 -122.306267 0 440ft 10kts
23-Mar-20 11:39 47.452748 -122.306234 0 440ft 17kts
23-Mar-20 11:40 47.458569 -122.306177 0 440ft 24kts
23-Mar-20 11:41 47.463691 -122.306417 304 440ft 0kts
23-Mar-20 11:42 47.463784 -122.306846 271 440ft 12kts
23-Mar-20 11:43 47.450037 -122.307775 180 484ft 169kts
23-Mar-20 11:44 47.398129 -122.308675 181 2595ft 190kts
23-Mar-20 11:45 47.344200 -122.309519 181 4198ft 206kts
23-Mar-20 11:46 47.288474 -122.309577 184 8393ft 240kts
23-Mar-20 11:47 47.217975 -122.285487 152 11211ft 327kts
23-Mar-20 11:48 47.140535 -122.210444 151 15258ft 345kts
23-Mar-20 11:49 47.051805 -122.160521 171 18626ft 350kts
23-Mar-20 11:50 46.956743 -122.122695 171 21543ft 363kts
23-Mar-20 11:51 46.860043 -122.084358 171 24021ft 375kts
23-Mar-20 11:52 46.758170 -122.043990 171 26152ft 387kts
23-Mar-20 11:53 46.653622 -122.002530 171 28017ft 399kts
23-Mar-20 11:54 46.545268 -121.969997 177 29751ft 401kts
23-Mar-20 11:55 46.434030 -121.943606 176 31089ft 412kts
23-Mar-20 11:56 46.319921 -121.916140 176 32345ft 421kts
23-Mar-20 11:57 46.203413 -121.888126 176 33665ft 422kts
23-Mar-20 11:58 46.091325 -121.861281 176 35210ft 418kts
23-Mar-20 11:59 45.975927 -121.833767 176 36111ft 426kts
23-Mar-20 12:00 45.862926 -121.806923 176 37295ft 425kts
23-Mar-20 12:01 45.748162 -121.779801 176 38438ft 424kts
23-Mar-20 12:02 45.630699 -121.752163 176 38929ft 434kts
23-Mar-20 12:03 45.510192 -121.723916 176 38924ft 447kts
23-Mar-20 12:04 45.386556 -121.695053 176 39016ft 456kts
23-Mar-20 12:05 45.260838 -121.665827 176 39010ft 462kts
23-Mar-20 12:06 45.134536 -121.636598 176 39012ft 459kts
23-Mar-20 12:07 45.009328 -121.607765 176 39009ft 456kts
23-Mar-20 12:08 44.886605 -121.579620 176 39011ft 454kts
23-Mar-20 12:09 44.763220 -121.551464 176 39013ft 453kts
23-Mar-20 12:10 44.639486 -121.523326 176 39013ft 452kts
23-Mar-20 12:11 44.516078 -121.495403 176 39013ft 451kts
23-Mar-20 12:12 44.392849 -121.467636 176 38900ft 452kts
23-Mar-20 12:13 44.268550 -121.439743 176 38908ft 453kts
23-Mar-20 12:14 44.144129 -121.411945 176 38894ft 455kts
23-Mar-20 12:15 44.019098 -121.384124 176 38894ft 457kts
23-Mar-20 12:16 43.896164 -121.356884 176 38930ft 458kts
23-Mar-20 12:17 43.773275 -121.329649 177 38933ft 459kts
23-Mar-20 12:18 43.647680 -121.301841 177 38952ft 459kts
23-Mar-20 12:19 43.521867 -121.274102 177 38951ft 459kts
23-Mar-20 12:20 43.395552 -121.246368 177 38951ft 460kts
23-Mar-20 12:21 43.269651 -121.218841 177 38950ft 460kts
23-Mar-20 12:22 43.143335 -121.191342 177 38948ft 461kts
23-Mar-20 12:23 43.016643 -121.163874 177 38942ft 461kts
23-Mar-20 12:24 42.893425 -121.137270 177 38944ft 461kts
23-Mar-20 12:25 42.786235 -121.114212 177 38949ft 462kts
23-Mar-20 12:26 42.671586 -121.089640 177 38938ft 463kts
23-Mar-20 12:27 42.546988 -121.063040 177 38941ft 464kts
23-Mar-20 12:28 42.407424 -121.033372 177 38944ft 464kts
23-Mar-20 12:29 42.279902 -121.006381 177 38948ft 465kts
23-Mar-20 12:30 42.153662 -120.979768 177 38950ft 465kts
23-Mar-20 12:31 42.026021 -120.952975 177 38963ft 465kts
23-Mar-20 12:32 41.900122 -120.926643 177 38992ft 464kts
23-Mar-20 12:33 41.790783 -120.903874 177 38999ft 464kts
23-Mar-20 12:34 41.668588 -120.878509 177 38998ft 462kts
23-Mar-20 12:35 41.569434 -120.858017 177 39001ft 463kts
23-Mar-20 12:36 41.444650 -120.832315 177 39001ft 463kts
23-Mar-20 12:37 41.317478 -120.806209 177 39001ft 463kts
23-Mar-20 12:38 41.190652 -120.780266 177 39000ft 463kts
23-Mar-20 12:39 41.063822 -120.754430 178 39001ft 463kts
23-Mar-20 12:40 40.939176 -120.726530 176 39001ft 465kts
23-Mar-20 12:41 40.833086 -120.700904 176 39029ft 466kts
23-Mar-20 12:42 40.729405 -120.675905 176 39041ft 468kts
23-Mar-20 12:43 40.615722 -120.648581 176 39041ft 469kts
23-Mar-20 12:44 40.494640 -120.619579 176 39041ft 471kts
23-Mar-20 12:45 40.373959 -120.590772 176 39040ft 470kts
23-Mar-20 12:46 40.252551 -120.561905 176 39040ft 468kts
23-Mar-20 12:47 40.109650 -120.528059 176 39040ft 467kts
23-Mar-20 12:48 39.985326 -120.498719 176 39041ft 467kts
23-Mar-20 12:49 39.872747 -120.472268 177 39044ft 466kts
23-Mar-20 12:50 39.775549 -120.449500 177 39071ft 466kts
23-Mar-20 12:51 39.674735 -120.425947 177 39071ft 466kts
23-Mar-20 12:52 39.565363 -120.400470 177 39104ft 465kts
23-Mar-20 12:53 39.454745 -120.374787 177 39126ft 465kts
23-Mar-20 12:54 39.343029 -120.348925 177 39125ft 465kts
23-Mar-20 12:55 39.237131 -120.324501 177 39113ft 464kts
23-Mar-20 12:56 39.124398 -120.298570 177 39102ft 463kts
23-Mar-20 12:57 39.004556 -120.271111 177 39100ft 462kts
23-Mar-20 12:58 38.888461 -120.244587 178 39099ft 461kts
23-Mar-20 12:59 38.794612 -120.223219 178 39098ft 460kts
23-Mar-20 13:00 38.693266 -120.200162 178 39098ft 460kts
23-Mar-20 13:01 38.590939 -120.177010 178 39098ft 460kts
23-Mar-20 13:02 38.487106 -120.153573 178 39116ft 459kts
23-Mar-20 13:03 38.381224 -120.129730 178 39143ft 459kts
23-Mar-20 13:04 38.270023 -120.104782 178 39135ft 459kts
23-Mar-20 13:05 38.151124 -120.078459 178 39150ft 458kts
23-Mar-20 13:06 38.029609 -120.051761 178 39180ft 458kts
23-Mar-20 13:07 37.921889 -120.028169 178 39180ft 458kts
23-Mar-20 13:08 37.830235 -120.008152 178 39188ft 459kts
23-Mar-20 13:09 37.739649 -119.988419 178 39192ft 459kts
23-Mar-20 13:10 37.642950 -119.967403 178 39193ft 461kts
23-Mar-20 13:11 37.540420 -119.945201 178 39197ft 464kts
23-Mar-20 13:12 37.433117 -119.922008 178 39202ft 466kts
23-Mar-20 13:13 37.323740 -119.898440 178 39202ft 469kts
23-Mar-20 13:15 37.212015 -119.874440 178 39202ft 471kts
23-Mar-20 13:16 37.074744 -119.845050 178 39201ft 471kts
23-Mar-20 13:17 36.952326 -119.818927 179 39202ft 470kts
23-Mar-20 13:18 36.845477 -119.796201 179 39205ft 469kts
23-Mar-20 13:19 36.746227 -119.775152 179 39205ft 469kts
23-Mar-20 13:20 36.640866 -119.752877 179 39205ft 470kts
23-Mar-20 13:21 36.530527 -119.729602 179 39205ft 471kts
23-Mar-20 13:22 36.418760 -119.706089 179 39205ft 471kts
23-Mar-20 13:23 36.304079 -119.682041 179 39205ft 469kts
23-Mar-20 13:24 36.190267 -119.658244 179 39205ft 466kts
23-Mar-20 13:25 36.071983 -119.633572 179 39205ft 464kts
23-Mar-20 13:26 35.960270 -119.622784 195 39210ft 441kts
23-Mar-20 13:27 35.859283 -119.640331 197 39206ft 439kts
23-Mar-20 13:28 35.763927 -119.659180 198 39203ft 443kts
23-Mar-20 13:29 35.662697 -119.668858 182 39195ft 464kts
23-Mar-20 13:30 35.556885 -119.623443 166 39197ft 486kts
23-Mar-20 13:30 35.471286 -119.576931 165 39199ft 486kts
23-Mar-20 13:32 35.344971 -119.507555 166 39200ft 486kts
23-Mar-20 13:33 35.235971 -119.447786 165 38280ft 486kts
23-Mar-20 13:33 35.129391 -119.389458 165 36996ft 474kts
23-Mar-20 13:34 35.011507 -119.325150 166 35828ft 467kts
23-Mar-20 13:36 34.890857 -119.259567 165 34348ft 462kts
23-Mar-20 13:36 34.803147 -119.212048 164 32837ft 461kts
23-Mar-20 13:37 34.694747 -119.149407 159 30944ft 463kts
23-Mar-20 13:38 34.584832 -119.079508 158 30202ft 430kts
23-Mar-20 13:39 34.477564 -119.010272 157 28284ft 446kts
23-Mar-20 13:40 34.364478 -118.935682 155 25774ft 443kts
23-Mar-20 13:41 34.247372 -118.858066 154 22418ft 418kts
23-Mar-20 13:42 34.114808 -118.800736 166 19514ft 364kts
23-Mar-20 13:43 33.975747 -118.746471 168 16489ft 330kts
23-Mar-20 13:44 33.842394 -118.695026 167 13491ft 314kts
23-Mar-20 13:45 33.712408 -118.646070 169 13437ft 292kts
23-Mar-20 13:46 33.585380 -118.579470 126 9951ft 301kts
23-Mar-20 13:47 33.523068 -118.447671 93 7034ft 279kts
23-Mar-20 13:48 33.519052 -118.355713 91 5069ft 267kts
23-Mar-20 13:49 33.535820 -118.277981 69 4994ft 243kts
23-Mar-20 13:50 33.560276 -118.200659 68 4994ft 249kts
23-Mar-20 13:51 33.595404 -118.128174 55 4992ft 256kts
23-Mar-20 13:52 33.636758 -118.053696 55 4991ft 275kts
23-Mar-20 13:53 33.679038 -117.977595 55 4985ft 284kts
23-Mar-20 13:54 33.736740 -117.921084 27 4964ft 268kts
23-Mar-20 13:55 33.797339 -117.882097 26 4059ft 247kts
23-Mar-20 13:56 33.852052 -117.846925 26 3989ft 225kts
23-Mar-20 13:57 33.906599 -117.811812 27 3982ft 222kts
23-Mar-20 13:58 33.891329 -117.763929 180 3069ft 212kts
23-Mar-20 13:59 33.837832 -117.766135 207 2978ft 185kts
23-Mar-20 14:00 33.789242 -117.796791 208 2467ft 201kts
23-Mar-20 14:01 33.748788 -117.822429 210 1550ft 140kts
23-Mar-20 14:02 33.715303 -117.843717 210 839ft 137kts
23-Mar-20 14:03 33.681481 -117.865173 210 100ft 130kts
23-Mar-20 14:04 33.669291 -117.871812 133 63ft 0kts
23-Mar-20 14:05 33.668323 -117.871747 220 63ft 12kts
23-Mar-20 14:06 33.665971 -117.873133 207 63ft 0kts
23-Mar-20 14:07 33.665971 -117.873133 207 63ft 0kts

Navigation Log

Ident Type
Flight plan parsing failed, navigation log unavailable